Time;durP1;ratioP1;P1;durP2;ratioP2;P2;SDS_P1;SDS_P2;PMS_P1;PMS_P2;Temp;Humidity;BMP_temperature;BMP_pressure;BME280_temperature;BME280_humidity;BME280_pressure;Samples;Min_cycle;Max_cycle;Signal;HPM_P1;HPM_P2
2023/08/05 00:01:48;;;;;;;;;7.00;7.00;;;;;17.22;70.81;101624.03;5090362;27;67376;-47
2023/08/05 00:04:13;;;;;;;;;8.33;7.00;;;;;17.21;70.65;101630.38;5094161;27;71844;-50
2023/08/05 00:06:38;;;;;;;;;8.00;7.00;;;;;17.19;70.43;101630.50;5093569;27;65979;-49
2023/08/05 00:09:04;;;;;;;;;10.00;7.33;;;;;17.17;70.75;101628.88;5093385;27;47471;-50
2023/08/05 00:11:29;;;;;;;;;7.67;7.33;;;;;17.14;71.01;101620.97;5091244;27;67619;-47
2023/08/05 00:13:55;;;;;;;;;7.67;7.00;;;;;17.13;71.10;101633.56;5085552;27;46042;-51
2023/08/05 00:16:20;;;;;;;;;7.67;6.00;;;;;17.11;71.43;101635.47;5084313;27;67372;-47
2023/08/05 00:18:45;;;;;;;;;9.00;8.00;;;;;17.08;70.89;101627.63;5089481;27;45789;-47
2023/08/05 00:21:11;;;;;;;;;5.00;5.00;;;;;17.06;71.54;101626.84;5093104;27;46801;-47
2023/08/05 00:23:36;;;;;;;;;9.33;7.00;;;;;17.05;71.51;101619.75;5093040;27;67576;-51
2023/08/05 00:26:01;;;;;;;;;9.67;7.00;;;;;17.03;71.55;101616.31;5085521;27;71313;-50
2023/08/05 00:28:26;;;;;;;;;7.33;7.33;;;;;17.02;71.46;101626.19;5093540;27;64182;-47
2023/08/05 00:30:52;;;;;;;;;8.00;6.67;;;;;17.00;71.69;101620.06;5092190;27;64551;-50
2023/08/05 00:33:17;;;;;;;;;8.00;7.67;;;;;16.98;71.61;101618.44;5094875;27;46027;-47
2023/08/05 00:35:43;;;;;;;;;6.00;6.00;;;;;16.95;71.98;101613.25;5062702;27;71317;-48
2023/08/05 00:38:08;;;;;;;;;7.67;7.67;;;;;16.93;72.37;101610.66;5094432;27;45695;-49
2023/08/05 00:40:33;;;;;;;;;9.00;7.67;;;;;16.92;72.07;101587.44;5083810;27;68125;-47
2023/08/05 00:42:58;;;;;;;;;5.67;5.67;;;;;16.87;71.87;101587.69;5080984;27;72523;-46
2023/08/05 00:45:24;;;;;;;;;9.00;9.00;;;;;16.85;72.44;101578.88;5091572;27;72977;-46
2023/08/05 00:47:49;;;;;;;;;7.00;7.00;;;;;16.85;72.00;101572.63;5072551;27;59803;-47
2023/08/05 00:50:15;;;;;;;;;10.67;7.00;;;;;16.82;72.21;101567.47;5088110;27;53179;-46
2023/08/05 00:52:43;;;;;;;;;9.00;7.33;;;;;16.76;72.42;101575.91;5094289;27;46836;-46
2023/08/05 00:55:08;;;;;;;;;6.00;6.00;;;;;16.70;72.22;101582.56;5096144;27;45362;-47
2023/08/05 00:57:34;;;;;;;;;7.33;6.67;;;;;16.68;72.17;101585.31;5069580;27;45546;-50
2023/08/05 00:59:59;;;;;;;;;6.00;6.00;;;;;16.67;72.62;101593.47;5063796;27;67174;-47
2023/08/05 01:02:25;;;;;;;;;7.00;7.00;;;;;16.64;72.70;101593.69;5086403;27;72754;-47
2023/08/05 01:04:50;;;;;;;;;8.33;5.00;;;;;16.64;72.95;101613.34;5083812;27;45274;-47
2023/08/05 01:07:17;;;;;;;;;6.00;6.00;;;;;16.66;72.93;101618.59;5084648;27;57258;-49
2023/08/05 01:09:43;;;;;;;;;6.67;6.67;;;;;16.65;73.07;101615.06;5072931;27;45462;-47
2023/08/05 01:12:08;;;;;;;;;6.33;6.33;;;;;16.65;73.15;101612.38;5080922;27;45894;-48
2023/08/05 01:14:34;;;;;;;;;5.00;5.00;;;;;16.62;72.75;101609.91;5090986;27;67445;-48
2023/08/05 01:16:59;;;;;;;;;6.00;5.00;;;;;16.60;73.10;101614.50;5091501;27;45461;-46
2023/08/05 01:19:25;;;;;;;;;5.00;5.00;;;;;16.58;73.32;101602.97;5084512;27;45388;-47
2023/08/05 01:22:19;;;;;;;;;5.00;5.00;;;;;16.56;73.84;101591.47;5070822;27;67615;-47
2023/08/05 01:25:05;;;;;;;;;7.00;6.00;;;;;16.53;73.47;101578.22;5083753;27;45351;-47
2023/08/05 01:27:32;;;;;;;;;6.67;6.67;;;;;16.50;73.76;101573.06;5073960;27;45402;-47
2023/08/05 01:29:57;;;;;;;;;7.33;7.00;;;;;16.47;74.10;101574.13;5071331;28;45486;-46
2023/08/05 01:32:24;;;;;;;;;6.33;6.33;;;;;16.46;74.28;101583.13;5087210;27;66053;-47
2023/08/05 01:34:50;;;;;;;;;6.67;5.00;;;;;16.46;74.31;101591.19;5087967;27;45254;-47
2023/08/05 01:37:15;;;;;;;;;8.33;8.33;;;;;16.46;74.37;101585.81;5084414;27;63247;-48
2023/08/05 01:39:40;;;;;;;;;7.00;7.00;;;;;16.46;74.21;101587.63;5067643;28;70421;-47
2023/08/05 01:42:06;;;;;;;;;6.00;6.00;;;;;16.43;74.33;101588.69;5090016;27;45373;-47
2023/08/05 01:44:31;;;;;;;;;6.00;6.00;;;;;16.43;74.36;101587.84;5091153;27;45406;-48
2023/08/05 01:46:56;;;;;;;;;5.00;4.00;;;;;16.42;74.54;101591.47;5089496;27;45583;-48
2023/08/05 01:49:22;;;;;;;;;6.33;6.33;;;;;16.42;74.61;101594.16;5083749;27;67229;-47
2023/08/05 01:51:47;;;;;;;;;4.00;4.00;;;;;16.42;74.46;101603.06;5083135;27;71935;-48
2023/08/05 01:54:12;;;;;;;;;5.33;4.00;;;;;16.43;74.75;101618.22;5091943;27;45370;-46
2023/08/05 01:56:38;;;;;;;;;6.00;6.00;;;;;16.43;74.97;101631.66;5087080;27;50928;-47
2023/08/05 01:59:03;;;;;;;;;5.00;5.00;;;;;16.44;74.42;101635.19;5080085;27;69136;-47
2023/08/05 02:01:47;;;;;;;;;7.00;4.00;;;;;16.46;74.47;101630.59;5085504;27;46066;-50
2023/08/05 02:04:13;;;;;;;;;7.67;4.33;;;;;16.49;74.80;101627.72;5085258;27;45367;-51
2023/08/05 02:06:39;;;;;;;;;5.00;5.00;;;;;16.49;74.55;101617.84;5087983;27;45577;-49
2023/08/05 02:09:05;;;;;;;;;5.67;5.00;;;;;16.52;74.26;101608.75;5078163;27;45505;-48
2023/08/05 02:11:30;;;;;;;;;7.00;6.00;;;;;16.52;74.15;101600.69;5090645;27;45477;-50
2023/08/05 02:13:56;;;;;;;;;7.33;6.67;;;;;16.51;74.63;101586.38;5092433;27;45457;-46
2023/08/05 02:16:21;;;;;;;;;5.33;4.00;;;;;16.51;74.33;101566.72;5086016;27;59556;-49
2023/08/05 02:18:46;;;;;;;;;6.33;6.00;;;;;16.50;74.40;101554.25;5079221;27;70546;-48
2023/08/05 02:21:12;;;;;;;;;4.00;4.00;;;;;16.50;74.61;101557.84;5072800;27;75247;-48
2023/08/05 02:23:37;;;;;;;;;6.67;4.00;;;;;16.53;74.77;101549.56;5090145;27;45412;-47
2023/08/05 02:26:03;;;;;;;;;4.67;3.33;;;;;16.58;73.94;101543.03;5091286;27;45393;-49
2023/08/05 02:28:28;;;;;;;;;5.00;5.00;;;;;16.61;74.18;101527.59;5083199;27;45473;-49
2023/08/05 02:30:53;;;;;;;;;4.67;4.67;;;;;16.64;73.85;101530.06;5090253;27;71543;-48
2023/08/05 02:33:19;;;;;;;;;7.00;5.67;;;;;16.69;73.92;101533.31;5086869;27;61047;-49
2023/08/05 02:35:46;;;;;;;;;5.00;5.00;;;;;16.75;73.54;101515.09;5096137;27;61546;-46
2023/08/05 02:38:11;;;;;;;;;5.67;5.67;;;;;16.73;73.50;101509.81;5093183;27;45548;-49
2023/08/05 02:40:36;;;;;;;;;5.67;5.67;;;;;16.73;73.84;101517.03;5087876;27;49043;-47
2023/08/05 02:43:01;;;;;;;;;6.00;5.00;;;;;16.70;73.54;101497.47;5097945;27;45377;-48
2023/08/05 02:45:27;;;;;;;;;4.00;4.00;;;;;16.68;73.38;101495.81;5076906;27;62204;-48
2023/08/05 02:47:52;;;;;;;;;7.33;6.00;;;;;16.65;74.08;101488.84;5093024;27;60462;-48
2023/08/05 02:50:17;;;;;;;;;4.00;4.00;;;;;16.63;74.37;101485.38;5088665;27;60410;-47
2023/08/05 02:52:43;;;;;;;;;4.00;4.00;;;;;16.59;74.14;101483.84;5097372;27;72569;-46
2023/08/05 02:55:08;;;;;;;;;5.33;5.33;;;;;16.54;74.17;101489.53;5094075;27;61436;-47
2023/08/05 02:57:33;;;;;;;;;6.00;5.00;;;;;16.53;74.48;101492.28;5090917;27;65230;-46
2023/08/05 02:59:59;;;;;;;;;6.33;6.00;;;;;16.50;73.88;101495.19;5084960;27;67332;-48
2023/08/05 03:02:24;;;;;;;;;5.67;4.00;;;;;16.46;74.47;101489.16;5083895;27;45814;-47
2023/08/05 03:04:49;;;;;;;;;8.67;6.00;;;;;16.43;74.50;101497.41;5087782;27;51843;-47
2023/08/05 03:07:15;;;;;;;;;5.00;5.00;;;;;16.43;74.97;101493.88;5092407;27;45445;-47
2023/08/05 03:09:40;;;;;;;;;5.00;5.00;;;;;16.42;74.85;101489.47;5076927;27;71114;-48
2023/08/05 03:12:07;;;;;;;;;2.33;2.33;;;;;16.39;75.21;101493.19;5083170;27;70873;-49
2023/08/05 03:14:33;;;;;;;;;3.00;2.67;;;;;16.36;75.50;101486.19;5083296;27;45343;-49
2023/08/05 03:16:58;;;;;;;;;4.33;4.33;;;;;16.34;75.61;101484.56;5087972;27;45363;-49
2023/08/05 03:19:24;;;;;;;;;5.00;5.00;;;;;16.33;75.32;101489.06;5095378;27;68160;-49
2023/08/05 03:21:49;;;;;;;;;7.67;7.67;;;;;16.32;75.41;101503.47;5085212;27;45309;-49
2023/08/05 03:24:15;;;;;;;;;7.33;6.67;;;;;16.31;75.92;101482.94;5083123;27;64980;-50
2023/08/05 03:26:40;;;;;;;;;7.00;6.33;;;;;16.30;75.83;101478.53;5091055;27;67660;-46
2023/08/05 03:29:05;;;;;;;;;7.00;6.00;;;;;16.31;75.75;101485.63;5092569;27;68242;-48
2023/08/05 03:31:31;;;;;;;;;7.00;7.00;;;;;16.30;75.82;101486.59;5084505;27;45337;-49
2023/08/05 03:33:58;;;;;;;;;9.67;8.33;;;;;16.30;75.88;101493.78;5091581;27;45739;-46
2023/08/05 03:36:23;;;;;;;;;7.67;7.33;;;;;16.28;76.22;101491.22;5085751;27;67620;-48
2023/08/05 03:38:48;;;;;;;;;7.00;7.00;;;;;16.26;76.07;101490.44;5084603;27;71963;-48
2023/08/05 03:41:13;;;;;;;;;6.33;6.00;;;;;16.26;76.41;101495.78;5087214;27;72547;-48
2023/08/05 03:43:39;;;;;;;;;5.67;5.67;;;;;16.26;76.01;101493.13;5094021;27;45432;-49
2023/08/05 03:46:04;;;;;;;;;7.00;6.00;;;;;16.28;76.28;101484.97;5087365;27;67887;-49
2023/08/05 03:48:29;;;;;;;;;5.67;5.00;;;;;16.29;76.11;101478.63;5080582;27;55855;-46
2023/08/05 03:50:55;;;;;;;;;5.00;5.00;;;;;16.31;76.47;101480.25;5094633;27;45524;-50
2023/08/05 03:53:21;;;;;;;;;5.00;5.00;;;;;16.31;76.05;101464.16;5101178;27;61151;-46
2023/08/05 03:55:47;;;;;;;;;9.00;5.67;;;;;16.33;76.00;101458.69;5094769;27;45521;-47
2023/08/05 03:58:12;;;;;;;;;7.00;5.67;;;;;16.31;75.93;101445.38;5090816;27;46261;-50
2023/08/05 04:00:43;;;;;;;;;3.00;3.00;;;;;16.32;75.50;101431.00;5097634;27;45468;-47
2023/08/05 04:03:09;;;;;;;;;4.00;3.00;;;;;16.33;75.71;101413.91;5091000;27;45593;-47
2023/08/05 04:05:34;;;;;;;;;4.33;4.00;;;;;16.31;75.58;101410.47;5084584;27;45603;-46
2023/08/05 04:07:59;;;;;;;;;5.00;5.00;;;;;16.29;75.85;101403.47;5089815;27;46253;-47
2023/08/05 04:10:25;;;;;;;;;4.00;3.00;;;;;16.29;75.87;101390.91;5084534;27;67377;-47
2023/08/05 04:12:50;;;;;;;;;5.00;5.00;;;;;16.33;76.12;101387.06;5095822;27;53398;-48
2023/08/05 04:15:18;;;;;;;;;4.67;4.00;;;;;16.31;75.40;101383.63;5086439;27;45700;-51
2023/08/05 04:17:44;;;;;;;;;4.00;3.00;;;;;16.34;75.28;101382.56;5080720;27;46931;-49
2023/08/05 04:20:12;;;;;;;;;5.00;5.00;;;;;16.36;75.78;101378.81;5093206;27;45493;-47
2023/08/05 04:22:38;;;;;;;;;3.33;3.33;;;;;16.40;75.56;101386.66;5089557;27;45327;-46
2023/08/05 04:25:04;;;;;;;;;2.00;2.00;;;;;16.40;75.13;101387.53;5096941;27;45323;-50
2023/08/05 04:27:30;;;;;;;;;3.00;3.00;;;;;16.35;75.35;101393.19;5075634;28;47169;-48
2023/08/05 04:29:55;;;;;;;;;4.00;4.00;;;;;16.37;75.51;101398.47;5073364;27;72046;-49
2023/08/05 04:32:21;;;;;;;;;3.00;3.00;;;;;16.41;74.68;101408.03;5069126;28;45750;-48
2023/08/05 04:34:46;;;;;;;;;4.33;4.00;;;;;16.43;75.25;101407.97;5070055;28;63890;-50
2023/08/05 04:37:18;;;;;;;;;4.00;3.00;;;;;16.46;74.79;101413.13;5065054;28;45996;-48
2023/08/05 04:39:44;;;;;;;;;5.33;3.00;;;;;16.48;75.08;101411.22;5072647;27;46089;-51
2023/08/05 04:42:10;;;;;;;;;5.00;4.00;;;;;16.50;74.32;101414.63;5074490;28;45598;-47
2023/08/05 04:44:37;;;;;;;;;1.67;1.00;;;;;16.52;74.00;101412.72;5066577;28;45663;-48
2023/08/05 04:47:03;;;;;;;;;3.67;3.67;;;;;16.49;73.74;101407.53;5073823;28;47595;-48
2023/08/05 04:49:28;;;;;;;;;5.33;3.33;;;;;16.43;74.02;101408.81;5073073;27;45322;-47
2023/08/05 04:51:53;;;;;;;;;3.67;3.67;;;;;16.38;73.82;101403.72;5069410;28;66445;-50
2023/08/05 04:54:19;;;;;;;;;4.33;2.00;;;;;16.40;73.92;101400.09;5067093;28;57348;-50
2023/08/05 04:56:44;;;;;;;;;3.67;3.00;;;;;16.43;74.24;101405.28;5064772;27;70181;-47
2023/08/05 04:59:09;;;;;;;;;9.00;6.00;;;;;16.47;73.89;101391.53;5061560;27;72534;-49
2023/08/05 05:01:35;;;;;;;;;3.67;3.00;;;;;16.49;73.46;101392.31;5071113;28;61635;-47
2023/08/05 05:04:00;;;;;;;;;5.00;2.33;;;;;16.46;73.59;101383.59;5075948;27;62239;-49
2023/08/05 05:06:25;;;;;;;;;4.33;3.00;;;;;16.43;73.62;101381.97;5069579;28;46082;-47
2023/08/05 05:08:51;;;;;;;;;5.00;1.00;;;;;16.44;73.75;101377.44;5064730;27;70011;-46
2023/08/05 05:11:16;;;;;;;;;3.67;3.00;;;;;16.44;73.67;101367.59;5071440;28;46784;-47
2023/08/05 05:13:43;;;;;;;;;4.00;3.67;;;;;16.46;73.47;101370.16;5072727;27;45659;-46
2023/08/05 05:16:10;;;;;;;;;2.33;2.33;;;;;16.48;73.55;101357.50;5068133;27;46253;-46
2023/08/05 05:18:35;;;;;;;;;4.00;3.00;;;;;16.51;73.64;101351.94;5062327;28;45483;-46
2023/08/05 05:21:00;;;;;;;;;4.33;3.00;;;;;16.59;73.43;101351.41;5063046;28;52633;-47
2023/08/05 05:23:26;;;;;;;;;3.00;3.00;;;;;16.66;73.08;101360.78;5064011;27;65333;-47
2023/08/05 05:25:51;;;;;;;;;5.67;3.00;;;;;16.69;72.77;101358.75;5070533;27;70790;-50
2023/08/05 05:28:17;;;;;;;;;4.67;4.00;;;;;16.77;72.38;101357.38;5092774;27;45754;-51
2023/08/05 05:30:42;;;;;;;;;3.33;3.33;;;;;16.84;72.75;101361.34;5097833;27;45307;-52
2023/08/05 05:33:07;;;;;;;;;2.67;2.67;;;;;16.89;72.19;101345.78;5067995;28;62258;-49
2023/08/05 05:35:32;;;;;;;;;3.67;2.33;;;;;16.97;72.01;101331.88;5091680;27;46126;-52
2023/08/05 05:37:58;;;;;;;;;1.67;1.67;;;;;17.05;71.82;101334.03;5076980;27;68429;-48
2023/08/05 05:40:23;;;;;;;;;3.33;2.67;;;;;17.18;71.76;101326.81;5073065;28;45805;-51
2023/08/05 05:42:49;;;;;;;;;3.00;3.00;;;;;17.33;70.97;101331.13;5089029;27;70534;-51
2023/08/05 05:45:15;;;;;;;;;4.00;3.00;;;;;17.42;70.54;101323.41;5087608;27;47005;-50
2023/08/05 05:47:40;;;;;;;;;3.33;3.33;;;;;17.50;70.37;101319.19;5095993;27;45693;-50
2023/08/05 05:50:06;;;;;;;;;6.33;4.00;;;;;17.61;70.36;101325.63;5091398;27;45421;-50
2023/08/05 05:52:32;;;;;;;;;3.00;3.00;;;;;17.76;69.97;101319.16;5083035;27;45567;-50
2023/08/05 05:54:57;;;;;;;;;3.67;3.33;;;;;17.96;69.49;101319.56;5092499;27;72813;-48
2023/08/05 05:57:23;;;;;;;;;1.33;0.33;;;;;18.03;67.91;101304.69;5092148;27;62197;-47
2023/08/05 05:59:48;;;;;;;;;2.00;2.00;;;;;18.08;67.93;101305.22;5075456;27;45623;-49
2023/08/05 06:02:14;;;;;;;;;3.00;3.00;;;;;18.16;67.21;101300.13;5088033;27;45351;-50
2023/08/05 06:04:42;;;;;;;;;8.00;2.33;;;;;18.30;66.81;101298.22;5094720;27;45977;-50
2023/08/05 06:07:07;;;;;;;;;4.00;4.00;;;;;18.55;66.40;101294.56;5083978;27;45532;-47
2023/08/05 06:09:32;;;;;;;;;5.00;3.67;;;;;18.76;66.26;101291.16;5084412;27;50733;-49
2023/08/05 06:11:58;;;;;;;;;2.00;2.00;;;;;18.89;63.96;101292.00;5087870;27;45565;-49
2023/08/05 06:14:24;;;;;;;;;1.50;1.50;;;;;18.83;64.52;101277.09;5076897;27;45677;-48
2023/08/05 06:16:49;;;;;;;;;4.50;4.00;;;;;18.76;64.54;101281.25;5095190;27;45402;-48
2023/08/05 06:19:14;;;;;;;;;3.00;3.00;;;;;18.68;64.20;101279.16;5089967;27;45430;-48
2023/08/05 06:21:40;;;;;;;;;3.00;3.00;;;;;18.55;64.63;101283.78;5089558;27;67196;-50
2023/08/05 06:24:05;;;;;;;;;6.00;3.75;;;;;18.53;64.76;101285.72;5093926;27;46344;-49
2023/08/05 06:26:30;;;;;;;;;3.00;3.00;;;;;18.63;64.32;101283.16;5067277;28;58797;-50
2023/08/05 06:28:56;;;;;;;;;3.00;2.00;;;;;18.72;64.44;101290.56;5075985;27;45818;-50
2023/08/05 06:31:21;;;;;;;;;2.00;2.00;;;;;18.88;63.44;101281.28;5075442;27;55383;-49
2023/08/05 06:33:46;;;;;;;;;3.00;3.00;;;;;19.06;63.37;101284.41;5063199;28;65297;-49
2023/08/05 06:36:12;;;;;;;;;2.00;2.00;;;;;19.19;62.30;101279.78;5070745;27;45392;-52
2023/08/05 06:38:37;;;;;;;;;2.00;2.00;;;;;19.61;61.10;101274.63;5072393;28;45967;-48
2023/08/05 06:41:03;;;;;;;;;5.67;2.33;;;;;20.73;60.60;101263.63;5069183;28;45363;-51
2023/08/05 06:43:28;;;;;;;;;2.50;2.00;;;;;22.76;59.21;101257.22;5071638;27;46065;-49
2023/08/05 06:45:53;;;;;;;;;5.00;3.00;;;;;24.89;50.15;101253.53;5072081;28;65519;-52
2023/08/05 06:48:18;;;;;;;;;2.00;2.00;;;;;25.11;50.60;101257.56;5065029;27;68805;-48
2023/08/05 06:50:44;;;;;;;;;2.00;2.00;;;;;24.87;50.97;101258.25;5061624;27;67725;-51
2023/08/05 06:53:09;;;;;;;;;2.00;2.00;;;;;24.91;49.82;101252.34;5072860;27;46216;-49
2023/08/05 06:55:34;;;;;;;;;4.00;4.00;;;;;24.79;49.55;101256.34;5061352;27;70556;-49
2023/08/05 06:58:00;;;;;;;;;2.67;2.67;;;;;24.47;46.19;101255.06;5072388;28;45370;-50
2023/08/05 07:00:27;;;;;;;;;5.00;4.00;;;;;24.26;48.24;101249.94;5075892;27;65317;-49
2023/08/05 07:02:52;;;;;;;;;2.00;2.00;;;;;24.29;47.64;101246.91;5069425;27;46387;-51
2023/08/05 07:05:18;;;;;;;;;3.25;2.00;;;;;24.24;45.65;101241.09;5071290;27;45343;-50
2023/08/05 07:07:43;;;;;;;;;1.25;1.25;;;;;23.83;46.11;101238.78;5076919;28;60184;-51
2023/08/05 07:10:11;;;;;;;;;1.00;1.00;;;;;24.38;48.12;101245.97;5073749;27;45658;-51
2023/08/05 07:12:37;;;;;;;;;4.00;2.00;;;;;25.71;46.00;101245.78;5068635;27;46252;-52
2023/08/05 07:15:06;;;;;;;;;3.00;3.00;;;;;25.74;45.52;101239.16;5072011;28;46233;-52
2023/08/05 07:17:31;;;;;;;;;2.25;1.25;;;;;25.09;44.83;101238.66;5069073;28;45664;-52
2023/08/05 07:19:57;;;;;;;;;1.50;1.50;;;;;24.63;44.62;101248.00;5061280;28;45617;-51
2023/08/05 07:22:23;;;;;;;;;2.50;2.00;;;;;24.09;44.96;101243.47;5065379;28;45491;-49
2023/08/05 07:24:48;;;;;;;;;4.00;1.00;;;;;23.57;45.06;101246.78;5076708;28;45263;-51
2023/08/05 07:27:14;;;;;;;;;4.25;4.00;;;;;23.26;47.23;101244.38;5087757;27;45472;-52
2023/08/05 07:29:42;;;;;;;;;2.00;1.50;;;;;22.88;47.20;101235.31;5095415;27;65699;-52
2023/08/05 07:32:08;;;;;;;;;1.00;1.00;;;;;22.46;46.98;101231.13;5091802;27;45334;-52
2023/08/05 07:34:33;;;;;;;;;4.00;2.50;;;;;22.20;48.77;101228.13;5084192;27;73009;-50
2023/08/05 07:36:59;;;;;;;;;3.25;3.25;;;;;22.06;48.94;101235.69;5084372;27;45507;-50
2023/08/05 07:39:28;;;;;;;;;2.00;2.00;;;;;21.93;49.35;101243.22;5084964;27;45640;-51
2023/08/05 07:41:53;;;;;;;;;1.00;1.00;;;;;21.76;49.63;101240.19;5089626;27;48180;-48
2023/08/05 07:44:18;;;;;;;;;3.25;2.00;;;;;21.72;49.64;101238.75;5089797;27;45445;-48
2023/08/05 07:46:45;;;;;;;;;2.00;2.00;;;;;21.86;49.48;101233.94;5068863;27;61214;-48
2023/08/05 07:49:12;;;;;;;;;4.00;2.00;;;;;22.17;49.82;101244.66;5090615;27;45524;-51
2023/08/05 07:51:39;;;;;;;;;1.25;1.25;;;;;22.45;49.02;101243.00;5087314;27;46276;-52
2023/08/05 07:54:05;;;;;;;;;2.75;2.75;;;;;22.45;48.67;101226.72;5090627;27;45735;-52
2023/08/05 07:56:30;;;;;;;;;2.00;2.00;;;;;22.29;48.98;101221.84;5085790;27;45506;-49
2023/08/05 07:58:55;;;;;;;;;2.00;2.00;;;;;22.04;49.44;101217.84;5097363;27;45426;-51
2023/08/05 08:01:22;;;;;;;;;2.75;1.75;;;;;21.75;49.65;101214.13;5094040;27;45428;-49
2023/08/05 08:03:48;;;;;;;;;2.75;2.00;;;;;21.52;50.07;101199.91;5093508;27;45685;-51
2023/08/05 08:06:15;;;;;;;;;3.50;2.00;;;;;21.40;50.37;101196.47;5094387;27;45490;-51
2023/08/05 08:08:44;;;;;;;;;1.75;1.75;;;;;21.29;50.58;101194.75;5074827;27;44886;-51
2023/08/05 08:11:10;;;;;;;;;2.25;2.25;;;;;21.15;50.65;101192.41;5089347;27;48709;-52
2023/08/05 08:13:36;;;;;;;;;1.75;1.50;;;;;21.08;51.42;101207.47;5087066;27;45581;-52
2023/08/05 08:16:01;;;;;;;;;2.75;2.00;;;;;20.96;51.49;101202.16;5079525;27;45772;-48
2023/08/05 08:18:27;;;;;;;;;2.50;2.00;;;;;20.89;51.43;101203.69;5087134;27;45572;-49
2023/08/05 08:20:52;;;;;;;;;3.25;2.00;;;;;20.83;51.48;101212.31;5092165;27;72221;-49
2023/08/05 08:23:18;;;;;;;;;5.00;2.00;;;;;20.72;51.96;101205.16;5071205;27;45447;-49
2023/08/05 08:25:43;;;;;;;;;2.00;1.00;;;;;20.59;51.63;101196.38;5088549;27;45479;-49
2023/08/05 08:28:09;;;;;;;;;1.00;1.00;;;;;20.44;52.06;101194.00;5074149;27;45565;-48
2023/08/05 08:30:34;;;;;;;;;2.00;2.00;;;;;20.28;52.52;101196.28;5091148;27;69525;-50
2023/08/05 08:32:59;;;;;;;;;4.00;2.50;;;;;20.19;53.12;101186.28;5088191;27;60761;-52
2023/08/05 08:35:25;;;;;;;;;1.25;1.25;;;;;20.24;53.75;101186.75;5090137;27;65901;-49
2023/08/05 08:37:50;;;;;;;;;4.00;2.50;;;;;20.27;54.04;101181.94;5097344;27;45294;-48
2023/08/05 08:40:15;;;;;;;;;4.25;3.00;;;;;20.16;53.76;101200.91;5102535;27;65951;-51
2023/08/05 08:42:42;;;;;;;;;2.00;2.00;;;;;20.04;54.07;101192.00;5096293;27;52580;-51
2023/08/05 08:45:09;;;;;;;;;2.50;2.00;;;;;19.85;54.46;101184.56;5086774;27;45700;-49
2023/08/05 08:47:36;;;;;;;;;3.00;3.00;;;;;19.78;54.73;101180.66;5080783;27;45928;-50
2023/08/05 08:50:02;;;;;;;;;3.75;2.00;;;;;19.72;54.85;101170.34;5074005;27;45567;-48
2023/08/05 08:52:27;;;;;;;;;1.75;1.75;;;;;19.78;54.89;101173.41;5087782;27;45460;-49
2023/08/05 08:54:54;;;;;;;;;1.00;1.00;;;;;19.81;54.57;101173.16;5095415;27;66337;-49
2023/08/05 08:57:19;;;;;;;;;1.50;1.50;;;;;19.82;54.35;101165.94;5077702;27;45516;-48
2023/08/05 08:59:44;;;;;;;;;5.00;3.00;;;;;19.81;54.90;101159.66;5096524;27;47740;-51
2023/08/05 09:02:21;;;;;;;;;3.25;2.25;;;;;19.88;55.03;101151.94;5090737;27;45646;-49
2023/08/05 09:04:47;;;;;;;;;4.00;2.25;;;;;19.97;54.57;101143.06;5074627;27;45465;-51
2023/08/05 09:07:13;;;;;;;;;2.67;2.33;;;;;20.08;54.88;101144.84;5102587;27;45296;-52
2023/08/05 09:09:38;;;;;;;;;3.00;1.00;;;;;20.18;55.74;101139.53;5088747;27;46246;-52
2023/08/05 09:12:04;;;;;;;;;3.00;1.00;;;;;20.38;55.12;101137.78;5078334;27;45500;-51
2023/08/05 09:14:29;;;;;;;;;1.25;1.25;;;;;20.55;55.24;101143.59;5089369;27;45746;-48
2023/08/05 09:16:59;;;;;;;;;1.50;1.50;;;;;20.82;55.17;101132.25;5089362;27;66085;-52
2023/08/05 09:19:28;;;;;;;;;3.50;1.25;;;;;21.01;54.42;101126.03;5086738;27;45507;-51
2023/08/05 09:21:54;;;;;;;;;3.00;1.00;;;;;21.32;53.63;101124.13;5085033;27;45512;-62
2023/08/05 09:24:24;;;;;;;;;2.00;2.00;;;;;21.52;53.16;101123.31;5095041;27;45385;-62
2023/08/05 09:26:56;;;;;;;;;2.00;2.00;;;;;21.44;52.70;101118.59;5099180;27;45587;-63
2023/08/05 09:29:23;;;;;;;;;2.75;1.50;;;;;21.31;52.77;101108.91;5103118;27;46359;-63
2023/08/05 09:31:58;;;;;;;;;1.75;1.75;;;;;21.36;52.84;101103.06;5092809;27;45426;-63
2023/08/05 09:34:37;;;;;;;;;2.00;2.00;;;;;21.26;53.03;101094.94;5095096;27;45539;-63
2023/08/05 09:37:03;;;;;;;;;2.00;1.00;;;;;21.02;52.53;101081.78;5100011;27;45416;-63
2023/08/05 09:39:47;;;;;;;;;2.00;2.00;;;;;20.61;57.74;101097.09;5082353;27;47122;-67
2023/08/05 09:42:21;;;;;;;;;2.00;2.00;;;;;20.18;57.28;101101.72;5089935;27;45496;-67
2023/08/05 09:44:47;;;;;;;;;3.00;2.00;;;;;19.79;58.72;101091.44;5102749;27;45450;-67
2023/08/05 09:47:18;;;;;;;;;2.00;2.00;;;;;19.69;60.58;101087.81;5083205;27;45547;-67
2023/08/05 09:49:46;;;;;;;;;4.00;3.00;;;;;19.80;60.56;101082.38;5100006;27;46061;-67
2023/08/05 09:52:13;;;;;;;;;4.00;3.00;;;;;19.81;60.10;101080.53;5077949;27;45410;-67
2023/08/05 09:54:38;;;;;;;;;2.00;2.00;;;;;19.76;60.04;101080.06;5080780;27;45422;-67
2023/08/05 09:57:08;;;;;;;;;1.25;1.00;;;;;19.75;61.24;101064.84;5087916;27;46654;-67
2023/08/05 09:59:34;;;;;;;;;2.00;2.00;;;;;19.76;61.35;101053.91;5070426;27;46808;-67
2023/08/05 10:02:00;;;;;;;;;1.00;1.00;;;;;19.79;59.79;101050.09;5086609;27;70911;-67
2023/08/05 10:04:27;;;;;;;;;2.00;2.00;;;;;19.66;61.22;101043.06;5096357;27;45679;-67
2023/08/05 10:06:53;;;;;;;;;2.50;1.75;;;;;19.52;61.98;101048.78;5073655;27;45678;-67
2023/08/05 10:09:19;;;;;;;;;2.50;2.00;;;;;19.33;61.76;101047.63;5089947;27;46251;-58
2023/08/05 10:11:45;;;;;;;;;3.00;3.00;;;;;19.22;62.51;101046.81;5068447;28;45563;-55
2023/08/05 10:14:14;;;;;;;;;3.75;2.00;;;;;19.17;62.25;101050.72;5070857;27;45437;-56
2023/08/05 10:16:39;;;;;;;;;2.67;2.67;;;;;19.43;62.42;101049.53;5067890;27;45323;-60
2023/08/05 10:19:04;;;;;;;;;2.00;1.00;;;;;19.85;61.36;101046.91;5064663;27;73576;-61
2023/08/05 10:21:37;;;;;;;;;2.67;2.67;;;;;20.16;60.83;101037.03;5083181;27;61099;-61
2023/08/05 10:24:03;;;;;;;;;3.75;2.25;;;;;20.30;60.68;101049.31;5087027;27;45864;-56
2023/08/05 10:26:44;;;;;;;;;2.33;2.00;;;;;20.40;59.98;101054.78;5088268;27;45526;-54
2023/08/05 10:29:26;;;;;;;;;2.67;2.67;;;;;20.57;59.92;101034.38;5088636;27;46639;-57
2023/08/05 10:32:07;;;;;;;;;3.00;3.00;;;;;20.45;58.68;101032.75;5078724;27;45637;-58
2023/08/05 10:34:33;;;;;;;;;3.00;1.50;;;;;20.46;59.72;101012.88;5096532;27;45496;-60
2023/08/05 10:36:58;;;;;;;;;2.00;2.00;;;;;20.60;58.82;101008.94;5082432;27;45849;-60
2023/08/05 10:39:42;;;;;;;;;4.00;3.00;;;;;20.62;59.00;101010.53;5089734;27;70426;-60
2023/08/05 10:42:31;;;;;;;;;4.50;3.00;;;;;20.63;58.49;101000.56;5081140;27;45533;-60
2023/08/05 10:45:01;;;;;;;;;3.33;3.33;;;;;20.78;58.98;100993.81;5086271;27;45521;-58
2023/08/05 10:47:26;;;;;;;;;2.00;2.00;;;;;21.06;59.12;100982.31;5068288;28;45608;-59
2023/08/05 10:49:56;;;;;;;;;2.00;1.00;;;;;21.23;57.40;100969.94;5080580;27;48032;-60
2023/08/05 10:52:22;;;;;;;;;3.33;2.33;;;;;21.37;58.37;100969.50;5068562;28;45503;-58
2023/08/05 10:54:49;;;;;;;;;3.33;3.33;;;;;21.33;57.33;100954.56;5086472;27;59600;-58
2023/08/05 10:57:33;;;;;;;;;4.50;3.00;;;;;21.27;57.53;100944.31;5086269;27;45275;-58
2023/08/05 11:00:03;;;;;;;;;4.00;3.00;;;;;21.63;57.10;100940.03;5082955;27;45429;-58
2023/08/05 11:02:28;;;;;;;;;3.00;3.00;;;;;21.62;56.54;100935.59;5067535;27;45882;-60
2023/08/05 11:05:07;;;;;;;;;3.00;3.00;;;;;21.59;56.20;100922.38;5068383;28;46010;-60
2023/08/05 11:07:40;;;;;;;;;4.25;3.25;;;;;21.48;56.51;100919.81;5071080;27;45520;-60
2023/08/05 11:10:06;;;;;;;;;4.00;4.00;;;;;21.40;56.37;100898.03;5065770;27;46353;-59
2023/08/05 11:12:31;;;;;;;;;8.00;4.00;;;;;21.50;56.69;100885.34;5085452;27;45292;-58
2023/08/05 11:14:57;;;;;;;;;7.00;5.33;;;;;21.63;56.07;100894.03;5080181;27;45287;-58
2023/08/05 11:17:23;;;;;;;;;4.75;4.00;;;;;21.54;55.87;100897.63;5084541;27;45513;-58
2023/08/05 11:19:52;;;;;;;;;3.25;3.25;;;;;21.38;56.58;100894.63;5064594;28;46313;-57
2023/08/05 11:22:26;;;;;;;;;8.00;4.00;;;;;21.15;56.60;100879.56;5081777;27;45447;-60